Time;durP1;ratioP1;P1;durP2;ratioP2;P2;SDS_P1;SDS_P2;PMS_P1;PMS_P2;Temp;Humidity;BMP_temperature;BMP_pressure;BME280_temperature;BME280_humidity;BME280_pressure;Samples;Min_cycle;Max_cycle;Signal;HPM_P1;HPM_P2
2022/10/02 05:29:04;;;;;;;;;;;21.90;92.10;;;;;;5698903;23;20291;-78
2022/10/02 05:31:35;;;;;;;;;;;21.90;92.10;;;;;;5035302;28;20020;-77
2022/10/02 05:34:18;;;;;;;;;;;22.00;92.10;;;;;;5034571;28;20016;-77
2022/10/02 05:36:56;;;;;;;;;;;22.00;92.10;;;;;;5034636;28;20027;-77
2022/10/02 05:39:27;;;;;;;;;;;22.00;92.10;;;;;;5034640;28;19976;-77
2022/10/02 05:41:56;;;;;;;;;;;22.00;92.10;;;;;;5035116;28;19925;-76
2022/10/02 05:44:26;;;;;;;;;;;22.00;92.20;;;;;;5034566;28;19925;-76
2022/10/02 05:46:57;;;;;;;;;;;22.00;92.20;;;;;;5034502;28;19948;-76
2022/10/02 05:49:27;;;;;;;;;;;22.00;92.20;;;;;;5034448;28;19925;-76
2022/10/02 05:51:58;;;;;;;;;;;22.00;92.20;;;;;;5034072;28;20340;-76
2022/10/02 05:54:30;;;;;;;;;;;22.00;92.20;;;;;;5034113;28;19929;-76
2022/10/02 05:57:00;;;;;;;;;;;22.00;92.20;;;;;;5034299;28;20012;-76
2022/10/02 05:59:41;;;;;;;;;;;22.00;92.30;;;;;;5033915;28;19969;-76
2022/10/02 06:02:14;;;;;;;;;;;22.00;92.30;;;;;;5034015;28;20380;-76
2022/10/02 06:04:42;;;;;;;;;;;22.00;92.30;;;;;;5034315;28;19925;-76
2022/10/02 06:07:10;;;;;;;;;;;22.00;92.40;;;;;;5033908;28;19971;-76
2022/10/02 06:09:40;;;;;;;;;;;22.00;92.40;;;;;;5033798;28;19925;-76
2022/10/02 06:12:11;;;;;;;;;;;22.00;92.40;;;;;;5034192;28;19931;-76
2022/10/02 06:14:40;;;;;;;;;;;22.00;92.50;;;;;;5034886;28;20296;-76
2022/10/02 06:17:09;;;;;;;;;;;22.00;92.50;;;;;;5034001;28;20035;-76
2022/10/02 06:19:38;;;;;;;;;;;22.00;92.60;;;;;;5034020;28;20015;-76
2022/10/02 06:22:07;;;;;;;;;;;22.00;92.80;;;;;;5033477;28;20368;-76
2022/10/02 06:24:36;;;;;;;;;;;22.00;92.80;;;;;;5034008;28;19972;-76
2022/10/02 06:27:06;;;;;;;;;;;22.00;92.90;;;;;;5033992;28;20007;-76
2022/10/02 06:29:36;;;;;;;;;;;22.10;93.00;;;;;;5033834;28;19925;-75
2022/10/02 06:32:11;;;;;;;;;;;22.10;93.00;;;;;;5034008;28;19975;-75
2022/10/02 06:34:38;;;;;;;;;;;22.10;93.10;;;;;;5033643;28;19932;-75
2022/10/02 06:37:21;;;;;;;;;;;22.10;93.20;;;;;;5033596;28;20099;-75
2022/10/02 06:39:56;;;;;;;;;;;22.10;93.20;;;;;;5033871;28;20015;-75
2022/10/02 06:42:30;;;;;;;;;;;22.10;93.30;;;;;;5033908;28;20011;-75
2022/10/02 06:45:02;;;;;;;;;;;22.10;93.30;;;;;;5033577;28;19925;-75
2022/10/02 06:47:39;;;;;;;;;;;22.10;93.40;;;;;;5033823;28;19925;-75
2022/10/02 06:50:21;;;;;;;;;;;22.10;93.40;;;;;;5033490;28;19925;-75
2022/10/02 06:52:53;;;;;;;;;;;22.10;93.50;;;;;;5033827;28;19925;-75
2022/10/02 06:55:31;;;;;;;;;;;22.10;93.50;;;;;;5033889;28;20343;-75
2022/10/02 06:58:05;;;;;;;;;;;22.10;93.60;;;;;;5033372;28;19932;-75
2022/10/02 07:00:32;;;;;;;;;;;22.10;93.60;;;;;;5033743;28;20011;-75
2022/10/02 07:03:15;;;;;;;;;;;22.10;93.70;;;;;;5033717;28;19925;-75
2022/10/02 07:05:53;;;;;;;;;;;22.10;93.70;;;;;;5033903;28;19929;-75
2022/10/02 07:08:27;;;;;;;;;;;22.10;93.80;;;;;;5033363;28;20016;-75
2022/10/02 07:10:57;;;;;;;;;;;22.00;93.80;;;;;;5033684;28;20011;-75
2022/10/02 07:13:35;;;;;;;;;;;22.00;93.80;;;;;;5033538;28;20020;-75
2022/10/02 07:16:08;;;;;;;;;;;22.00;93.80;;;;;;5033658;28;20016;-75
2022/10/02 07:18:48;;;;;;;;;;;22.00;93.80;;;;;;5033084;28;20384;-74
2022/10/02 07:21:21;;;;;;;;;;;22.00;93.80;;;;;;5033113;28;19925;-73
2022/10/02 07:23:51;;;;;;;;;;;22.00;94.00;;;;;;5033459;28;20016;-73
2022/10/02 07:26:25;;;;;;;;;;;22.10;94.10;;;;;;5033165;28;20261;-73
2022/10/02 07:28:55;;;;;;;;;;;22.00;94.10;;;;;;5033045;28;20003;-73
2022/10/02 07:31:28;;;;;;;;;;;22.00;94.00;;;;;;5033033;28;20016;-73
2022/10/02 07:34:06;;;;;;;;;;;22.00;94.00;;;;;;5035641;28;19936;-73
2022/10/02 07:36:40;;;;;;;;;;;22.00;94.00;;;;;;5036872;28;19925;-73
2022/10/02 07:39:12;;;;;;;;;;;22.00;94.00;;;;;;5038435;28;19925;-75
2022/10/02 07:41:52;;;;;;;;;;;22.00;93.90;;;;;;5037700;28;20031;-75
2022/10/02 07:44:26;;;;;;;;;;;22.00;93.80;;;;;;5037118;28;20373;-72
2022/10/02 07:46:55;;;;;;;;;;;22.00;93.80;;;;;;5036806;28;19991;-73
2022/10/02 07:49:42;;;;;;;;;;;22.00;93.80;;;;;;5036700;28;19999;-72
2022/10/02 07:52:17;;;;;;;;;;;22.00;93.80;;;;;;5032955;28;19972;-72
2022/10/02 07:54:55;;;;;;;;;;;22.00;93.80;;;;;;5036371;28;19925;-73
2022/10/02 07:57:26;;;;;;;;;;;22.00;93.70;;;;;;5036171;28;20456;-73
2022/10/02 07:59:54;;;;;;;;;;;22.00;93.60;;;;;;5036181;28;19925;-73
2022/10/02 08:02:24;;;;;;;;;;;21.90;93.50;;;;;;5037061;28;20015;-73
2022/10/02 08:04:54;;;;;;;;;;;22.00;93.60;;;;;;5036136;28;20404;-72
2022/10/02 08:07:23;;;;;;;;;;;22.00;93.60;;;;;;5036648;28;19984;-76
2022/10/02 08:09:52;;;;;;;;;;;22.00;93.60;;;;;;5036650;28;19925;-74
2022/10/02 08:12:25;;;;;;;;;;;22.00;93.50;;;;;;5037049;28;19925;-76
2022/10/02 08:14:54;;;;;;;;;;;22.00;93.50;;;;;;5039655;28;20468;-75
2022/10/02 08:17:26;;;;;;;;;;;22.00;93.40;;;;;;5039418;28;19925;-74
2022/10/02 08:19:56;;;;;;;;;;;22.00;93.40;;;;;;5039014;28;19925;-75
2022/10/02 08:22:25;;;;;;;;;;;22.00;93.40;;;;;;5039424;28;19971;-77
2022/10/02 08:24:55;;;;;;;;;;;22.10;93.40;;;;;;5039128;28;20019;-76
2022/10/02 08:27:24;;;;;;;;;;;22.10;93.40;;;;;;5038353;28;19975;-77
2022/10/02 08:29:53;;;;;;;;;;;22.10;93.40;;;;;;5038949;28;20019;-75
2022/10/02 08:32:21;;;;;;;;;;;22.10;93.30;;;;;;5038505;28;19967;-76
2022/10/02 08:34:48;;;;;;;;;;;22.10;93.30;;;;;;5038282;28;19925;-74
2022/10/02 08:37:21;;;;;;;;;;;22.10;93.30;;;;;;5035682;28;19931;-75
2022/10/02 08:40:03;;;;;;;;;;;22.10;93.30;;;;;;5039686;28;19960;-74
2022/10/02 08:42:45;;;;;;;;;;;22.10;93.20;;;;;;5039369;28;20043;-74
2022/10/02 08:45:33;;;;;;;;;;;22.10;93.20;;;;;;5017435;28;19991;-74
2022/10/02 08:48:26;;;;;;;;;;;22.10;93.20;;;;;;5034307;28;20403;-73
2022/10/02 08:51:23;;;;;;;;;;;22.10;93.20;;;;;;5037745;28;19925;-77
2022/10/02 08:54:01;;;;;;;;;;;22.10;93.20;;;;;;4996603;28;19926;-77
2022/10/02 08:56:37;;;;;;;;;;;22.10;93.20;;;;;;5030771;28;19932;-75
2022/10/02 08:59:18;;;;;;;;;;;22.10;93.20;;;;;;5036689;28;20327;-76
2022/10/02 09:01:59;;;;;;;;;;;22.10;93.20;;;;;;5037186;28;20368;-74
2022/10/02 09:04:41;;;;;;;;;;;22.10;93.20;;;;;;5015870;28;20019;-73
2022/10/02 09:07:21;;;;;;;;;;;22.10;93.20;;;;;;5038548;28;19960;-75
2022/10/02 09:10:03;;;;;;;;;;;22.10;93.30;;;;;;5042580;28;19925;-76
2022/10/02 09:13:00;;;;;;;;;;;22.10;93.30;;;;;;5039262;28;19925;-76
2022/10/02 09:15:38;;;;;;;;;;;22.10;93.40;;;;;;5037930;28;19968;-73
2022/10/02 09:18:15;;;;;;;;;;;22.10;93.50;;;;;;5038904;28;20023;-79
2022/10/02 09:20:47;;;;;;;;;;;22.20;93.60;;;;;;5038291;28;20281;-76
2022/10/02 09:23:36;;;;;;;;;;;22.20;93.60;;;;;;5035176;28;19965;-77
2022/10/02 09:26:10;;;;;;;;;;;22.20;93.70;;;;;;5034719;28;19971;-77
2022/10/02 09:28:54;;;;;;;;;;;22.20;93.70;;;;;;5038479;28;19936;-79
2022/10/02 09:31:40;;;;;;;;;;;22.20;93.70;;;;;;5039617;28;19925;-79
2022/10/02 09:34:26;;;;;;;;;;;22.20;93.70;;;;;;5039813;28;20368;-80
2022/10/02 09:37:25;;;;;;;;;;;22.20;93.70;;;;;;5039186;28;19988;-75
2022/10/02 09:40:04;;;;;;;;;;;22.20;93.60;;;;;;4992853;28;19926;-75
2022/10/02 09:42:49;;;;;;;;;;;22.20;93.60;;;;;;5028481;28;19972;-75
2022/10/02 09:45:39;;;;;;;;;;;22.20;93.60;;;;;;5034431;28;19925;-75
2022/10/02 09:48:29;;;;;;;;;;;22.20;93.50;;;;;;5034516;28;20008;-77
2022/10/02 09:51:15;;;;;;;;;;;22.20;93.50;;;;;;5034739;28;20347;-76
2022/10/02 09:54:00;;;;;;;;;;;22.10;93.50;;;;;;5034486;28;19925;-76
2022/10/02 09:56:40;;;;;;;;;;;22.20;93.50;;;;;;5033700;28;20491;-76
2022/10/02 09:59:24;;;;;;;;;;;22.20;93.50;;;;;;5034169;28;20113;-75
2022/10/02 10:02:02;;;;;;;;;;;22.20;93.60;;;;;;5034191;28;20098;-76
2022/10/02 10:04:46;;;;;;;;;;;22.20;93.50;;;;;;5034228;28;19932;-75
2022/10/02 10:07:39;;;;;;;;;;;22.20;93.50;;;;;;5034031;28;20338;-74
2022/10/02 10:10:18;;;;;;;;;;;22.10;93.50;;;;;;5034114;28;19968;-75
2022/10/02 10:12:56;;;;;;;;;;;22.20;93.50;;;;;;5033778;28;20456;-74
2022/10/02 10:15:43;;;;;;;;;;;22.20;93.60;;;;;;5034534;28;20027;-75
2022/10/02 10:18:43;;;;;;;;;;;22.20;93.70;;;;;;5017272;28;20468;-74
2022/10/02 10:21:19;;;;;;;;;;;22.20;93.80;;;;;;4992604;28;20405;-74
2022/10/02 10:23:54;;;;;;;;;;;22.20;93.90;;;;;;4994148;28;20411;-74
2022/10/02 10:26:42;;;;;;;;;;;22.20;93.90;;;;;;5016478;28;19929;-74
2022/10/02 10:29:21;;;;;;;;;;;22.20;93.90;;;;;;5031456;28;20385;-75
2022/10/02 10:32:00;;;;;;;;;;;22.20;93.90;;;;;;5035086;28;19929;-77
2022/10/02 10:34:47;;;;;;;;;;;22.20;93.90;;;;;;5034534;28;19960;-77
2022/10/02 10:40:25;;;;;;;;;;;22.30;94.10;;;;;;5037302;28;19932;-77
2022/10/02 10:43:10;;;;;;;;;;;22.30;94.20;;;;;;5036810;28;19931;-75
2022/10/02 10:45:44;;;;;;;;;;;22.30;94.20;;;;;;5038023;28;19960;-75
2022/10/02 10:48:29;;;;;;;;;;;22.20;94.20;;;;;;5037588;28;19925;-74
2022/10/02 10:51:00;;;;;;;;;;;22.20;94.30;;;;;;5037569;28;19932;-77
2022/10/02 10:53:41;;;;;;;;;;;22.20;94.30;;;;;;5036981;28;20002;-77
2022/10/02 10:56:24;;;;;;;;;;;22.20;94.30;;;;;;5034455;28;19925;-77
2022/10/02 10:59:03;;;;;;;;;;;22.30;94.40;;;;;;5034638;28;19925;-79
2022/10/02 11:01:37;;;;;;;;;;;22.30;94.50;;;;;;5035159;28;19925;-80
2022/10/02 13:33:55;;;;;;;;;;;22.20;94.30;;;;;;5355318;23;19929;-79
2022/10/02 13:36:25;;;;;;;;;;;22.20;94.30;;;;;;5038456;28;19925;-79
2022/10/02 13:38:59;;;;;;;;;;;22.20;94.30;;;;;;5037504;28;20019;-79
2022/10/02 13:41:33;;;;;;;;;;;22.20;94.20;;;;;;5036569;28;19975;-78
2022/10/02 13:44:08;;;;;;;;;;;22.20;94.20;;;;;;5036324;28;20284;-78
2022/10/02 13:49:10;;;;;;;;;;;22.20;94.20;;;;;;5017914;28;19933;-79
2022/10/02 13:51:40;;;;;;;;;;;22.20;94.10;;;;;;5018542;28;20008;-79
2022/10/02 13:54:16;;;;;;;;;;;22.20;94.10;;;;;;5018330;28;19965;-80
2022/10/02 13:56:49;;;;;;;;;;;22.20;94.00;;;;;;5018365;28;20016;-80
2022/10/02 13:59:24;;;;;;;;;;;22.20;94.00;;;;;;5018699;28;20024;-80
2022/10/02 14:01:57;;;;;;;;;;;22.20;93.90;;;;;;5018430;28;19971;-80
2022/10/02 14:04:34;;;;;;;;;;;22.20;93.90;;;;;;5019077;28;20407;-80
2022/10/02 14:07:04;;;;;;;;;;;22.20;93.90;;;;;;5019106;28;19968;-79
2022/10/02 14:09:37;;;;;;;;;;;22.20;93.90;;;;;;5018379;28;20019;-79
2022/10/02 14:12:11;;;;;;;;;;;22.20;93.90;;;;;;5016741;28;20024;-79
2022/10/02 14:14:47;;;;;;;;;;;22.20;93.90;;;;;;5016431;28;19957;-79
2022/10/02 14:17:20;;;;;;;;;;;22.20;94.00;;;;;;5016525;28;20303;-79
2022/10/02 14:19:57;;;;;;;;;;;22.20;94.00;;;;;;5019051;28;20437;-79
2022/10/02 14:22:35;;;;;;;;;;;22.20;94.00;;;;;;5018604;28;19960;-79
2022/10/02 14:25:21;;;;;;;;;;;22.20;94.00;;;;;;5017700;28;19976;-79
2022/10/02 14:28:06;;;;;;;;;;;22.20;93.90;;;;;;5018318;28;19929;-79
2022/10/02 14:30:41;;;;;;;;;;;22.20;93.90;;;;;;5018058;28;19964;-80
2022/10/02 14:33:10;;;;;;;;;;;22.20;93.90;;;;;;5017823;28;19979;-79
2022/10/02 14:35:47;;;;;;;;;;;22.20;93.90;;;;;;5018350;28;19961;-81
2022/10/02 14:38:25;;;;;;;;;;;22.20;93.90;;;;;;5019760;28;20016;-81
2022/10/02 14:40:53;;;;;;;;;;;22.20;93.90;;;;;;5019939;28;20321;-81
2022/10/02 14:43:32;;;;;;;;;;;22.20;93.90;;;;;;5022922;28;19961;-81
2022/10/02 14:46:07;;;;;;;;;;;22.20;93.90;;;;;;5024047;28;19979;-81
2022/10/02 14:48:52;;;;;;;;;;;22.20;93.80;;;;;;5018475;28;20008;-76
2022/10/02 14:51:26;;;;;;;;;;;22.20;93.70;;;;;;5018051;28;20046;-74
2022/10/02 14:54:10;;;;;;;;;;;22.20;93.70;;;;;;5018170;28;20033;-75
2022/10/02 14:56:48;;;;;;;;;;;22.10;93.60;;;;;;5018016;28;20444;-76
2022/10/02 14:59:23;;;;;;;;;;;22.10;93.50;;;;;;5017608;28;20361;-75
2022/10/02 15:01:55;;;;;;;;;;;22.20;93.60;;;;;;5017937;28;19963;-77
2022/10/02 15:04:40;;;;;;;;;;;22.20;93.60;;;;;;5017510;28;20362;-75
2022/10/02 15:07:10;;;;;;;;;;;22.20;93.80;;;;;;5017821;28;20047;-75
2022/10/02 15:09:41;;;;;;;;;;;22.20;93.90;;;;;;5017905;28;20021;-75
2022/10/02 15:12:09;;;;;;;;;;;22.20;93.90;;;;;;5017812;28;20020;-76
2022/10/02 15:14:39;;;;;;;;;;;22.20;93.90;;;;;;5017434;28;19960;-75
2022/10/02 15:20:03;;;;;;;;;;;22.20;94.20;;;;;;5011618;28;20389;-75
2022/10/02 15:22:35;;;;;;;;;;;22.30;94.30;;;;;;5018320;28;19925;-75
2022/10/02 15:25:13;;;;;;;;;;;22.30;94.40;;;;;;5017495;28;20336;-75
2022/10/02 15:27:44;;;;;;;;;;;22.30;94.60;;;;;;5017667;28;19984;-75
2022/10/02 15:30:17;;;;;;;;;;;22.30;94.70;;;;;;5017483;28;20020;-75
2022/10/02 15:32:51;;;;;;;;;;;22.30;94.80;;;;;;5017995;28;20012;-75
2022/10/02 15:35:22;;;;;;;;;;;22.30;95.00;;;;;;5017393;28;20011;-75
2022/10/02 15:37:54;;;;;;;;;;;22.30;95.10;;;;;;5017520;28;19925;-76
2022/10/02 15:40:26;;;;;;;;;;;22.30;95.30;;;;;;5017427;28;19929;-77
2022/10/02 15:42:55;;;;;;;;;;;22.30;95.60;;;;;;5017716;28;20025;-76
2022/10/02 15:45:26;;;;;;;;;;;22.30;95.90;;;;;;5017326;28;19932;-76
2022/10/02 15:47:58;;;;;;;;;;;22.40;96.10;;;;;;5018343;28;20004;-79
2022/10/02 15:50:33;;;;;;;;;;;22.40;96.40;;;;;;5017872;28;19964;-76
2022/10/02 15:53:08;;;;;;;;;;;22.40;96.50;;;;;;5017155;28;19925;-74
2022/10/02 15:55:37;;;;;;;;;;;22.40;96.50;;;;;;5016764;28;20004;-74
2022/10/02 15:58:10;;;;;;;;;;;22.40;96.50;;;;;;5016580;28;20444;-74
2022/10/02 16:00:59;;;;;;;;;;;22.40;96.70;;;;;;5016856;28;20021;-74
2022/10/02 16:03:28;;;;;;;;;;;22.40;96.90;;;;;;5016767;28;19991;-74
2022/10/02 16:05:56;;;;;;;;;;;22.40;97.00;;;;;;5016618;28;20020;-74
2022/10/02 16:08:42;;;;;;;;;;;22.40;97.10;;;;;;5016586;28;19932;-74
2022/10/02 16:11:23;;;;;;;;;;;22.30;97.20;;;;;;5016556;28;20012;-74
2022/10/02 16:13:54;;;;;;;;;;;22.40;97.30;;;;;;5016214;28;20016;-74
2022/10/02 16:16:46;;;;;;;;;;;22.40;97.40;;;;;;5016043;28;19968;-74
2022/10/02 16:19:19;;;;;;;;;;;22.30;97.40;;;;;;5016235;28;20024;-74
2022/10/02 16:21:59;;;;;;;;;;;22.30;97.50;;;;;;5016028;28;20403;-74
2022/10/02 16:24:32;;;;;;;;;;;22.30;97.50;;;;;;5016241;28;19930;-74
2022/10/02 16:27:14;;;;;;;;;;;22.30;97.50;;;;;;5015833;28;20389;-75
2022/10/02 16:29:48;;;;;;;;;;;22.30;97.60;;;;;;5014572;28;20044;-75
2022/10/02 16:32:19;;;;;;;;;;;22.30;97.60;;;;;;5016174;28;19932;-75
2022/10/02 16:34:55;;;;;;;;;;;22.30;97.60;;;;;;5016115;28;19980;-75
2022/10/02 16:37:25;;;;;;;;;;;22.30;97.60;;;;;;5015282;28;20220;-75
2022/10/02 16:40:03;;;;;;;;;;;22.20;97.50;;;;;;5018119;28;19948;-73
2022/10/02 16:42:34;;;;;;;;;;;22.20;97.50;;;;;;5018293;28;19964;-74
2022/10/02 16:45:12;;;;;;;;;;;22.20;97.60;;;;;;5018027;28;19931;-74
2022/10/02 16:47:44;;;;;;;;;;;22.20;97.60;;;;;;5019726;28;19956;-73
2022/10/02 16:50:14;;;;;;;;;;;22.20;97.60;;;;;;5019516;28;19932;-73
2022/10/02 16:52:43;;;;;;;;;;;22.20;97.70;;;;;;5019517;28;19945;-73
2022/10/02 16:55:18;;;;;;;;;;;22.20;97.70;;;;;;5018149;28;19979;-78
2022/10/02 16:57:53;;;;;;;;;;;22.20;97.70;;;;;;5018277;28;19926;-77
2022/10/02 17:00:23;;;;;;;;;;;22.20;97.70;;;;;;5021807;28;20028;-77
2022/10/02 17:02:52;;;;;;;;;;;22.20;97.70;;;;;;5020950;28;19976;-77
2022/10/02 17:05:25;;;;;;;;;;;22.20;97.80;;;;;;5016779;28;19968;-78
2022/10/02 17:07:54;;;;;;;;;;;22.20;97.80;;;;;;5018505;28;19926;-74
2022/10/02 17:10:25;;;;;;;;;;;22.20;97.90;;;;;;5016865;28;20023;-75
2022/10/02 17:12:56;;;;;;;;;;;22.20;97.90;;;;;;5017646;28;19968;-74
2022/10/02 17:15:25;;;;;;;;;;;22.20;97.90;;;;;;5016842;28;19929;-74
2022/10/02 17:18:01;;;;;;;;;;;22.20;97.90;;;;;;5016367;28;19925;-74
2022/10/02 17:20:29;;;;;;;;;;;22.20;98.00;;;;;;5016564;28;20024;-73
2022/10/02 17:22:59;;;;;;;;;;;22.20;98.10;;;;;;5016012;28;19968;-74
2022/10/02 17:25:30;;;;;;;;;;;22.20;98.20;;;;;;5015193;28;20440;-74
2022/10/02 17:28:00;;;;;;;;;;;22.20;98.20;;;;;;5015477;28;20340;-74
2022/10/02 17:30:29;;;;;;;;;;;22.20;98.20;;;;;;5016257;28;20024;-74
2022/10/02 17:33:06;;;;;;;;;;;22.20;98.20;;;;;;5015903;28;19931;-74
2022/10/02 17:35:38;;;;;;;;;;;22.20;98.30;;;;;;5015719;28;20292;-74
2022/10/02 17:38:26;;;;;;;;;;;22.20;98.30;;;;;;5015541;28;19925;-74
2022/10/02 17:40:57;;;;;;;;;;;22.20;98.40;;;;;;4998792;28;20012;-74
2022/10/02 17:43:30;;;;;;;;;;;22.10;98.40;;;;;;5016009;28;19986;-74
2022/10/02 17:46:01;;;;;;;;;;;22.10;98.50;;;;;;5015745;28;19932;-75
2022/10/02 17:48:36;;;;;;;;;;;22.20;98.70;;;;;;5015239;28;19926;-74
2022/10/02 17:51:08;;;;;;;;;;;22.20;98.80;;;;;;5015561;28;19926;-74
2022/10/02 17:56:50;;;;;;;;;;;22.20;98.80;;;;;;5015495;28;19929;-74
2022/10/02 17:59:27;;;;;;;;;;;22.20;98.80;;;;;;5015884;28;19937;-74
2022/10/02 18:02:00;;;;;;;;;;;22.20;98.90;;;;;;5015483;28;20385;-74
2022/10/02 18:04:31;;;;;;;;;;;22.10;98.90;;;;;;5015875;28;20384;-75
2022/10/02 18:07:10;;;;;;;;;;;22.10;99.00;;;;;;5015666;28;20020;-75
2022/10/02 18:09:44;;;;;;;;;;;22.20;99.10;;;;;;5014623;28;20020;-75
2022/10/02 18:12:18;;;;;;;;;;;22.20;99.20;;;;;;5014487;28;19936;-74
2022/10/02 18:14:59;;;;;;;;;;;22.20;99.20;;;;;;5014435;28;19932;-74
2022/10/02 18:17:32;;;;;;;;;;;22.20;99.30;;;;;;5014338;28;20464;-75
2022/10/02 18:20:01;;;;;;;;;;;22.10;99.20;;;;;;5015145;28;19925;-75
2022/10/02 18:22:35;;;;;;;;;;;22.10;99.30;;;;;;5015226;28;19977;-74
2022/10/02 18:25:23;;;;;;;;;;;22.10;99.30;;;;;;5015608;28;20012;-74
2022/10/02 18:28:07;;;;;;;;;;;22.10;99.40;;;;;;5014830;28;20024;-74
2022/10/02 18:30:39;;;;;;;;;;;22.10;99.40;;;;;;5015373;28;19965;-74
2022/10/02 18:33:25;;;;;;;;;;;22.10;99.50;;;;;;5015174;28;19983;-74
2022/10/02 18:35:59;;;;;;;;;;;22.10;99.60;;;;;;5015255;28;20004;-74
2022/10/02 18:38:30;;;;;;;;;;;22.10;99.70;;;;;;5014990;28;19926;-75
2022/10/02 18:41:04;;;;;;;;;;;22.10;99.70;;;;;;5014107;28;19925;-75
2022/10/02 18:43:40;;;;;;;;;;;22.10;99.80;;;;;;5014142;28;19926;-75
2022/10/02 18:46:16;;;;;;;;;;;22.10;99.90;;;;;;5014119;28;19925;-74
2022/10/02 18:48:50;;;;;;;;;;;22.10;99.90;;;;;;5013585;28;19932;-74
2022/10/02 18:51:30;;;;;;;;;;;22.10;99.90;;;;;;5013759;28;20448;-73
2022/10/02 18:54:02;;;;;;;;;;;22.10;99.90;;;;;;5013775;28;20456;-73
2022/10/02 18:56:43;;;;;;;;;;;22.10;99.90;;;;;;5013731;28;20020;-74
2022/10/02 18:59:17;;;;;;;;;;;22.10;99.90;;;;;;5014797;28;20300;-73
2022/10/02 19:01:48;;;;;;;;;;;22.10;99.90;;;;;;5013665;28;19925;-73
2022/10/02 19:04:24;;;;;;;;;;;22.10;99.90;;;;;;5013969;28;20008;-73
2022/10/02 19:06:54;;;;;;;;;;;22.10;99.90;;;;;;5013853;28;19929;-74
2022/10/02 19:09:24;;;;;;;;;;;22.10;99.90;;;;;;5013871;28;20020;-73
2022/10/02 19:11:56;;;;;;;;;;;22.10;99.90;;;;;;5013541;28;20012;-74
2022/10/02 19:14:26;;;;;;;;;;;22.10;99.90;;;;;;5013561;28;20381;-74
2022/10/02 19:16:57;;;;;;;;;;;22.10;99.90;;;;;;5013758;28;20024;-74
2022/10/02 19:19:26;;;;;;;;;;;22.10;99.90;;;;;;5013403;28;20385;-74
2022/10/02 19:21:54;;;;;;;;;;;22.10;99.90;;;;;;5013789;28;19926;-74
2022/10/02 19:24:23;;;;;;;;;;;22.10;99.90;;;;;;5013776;28;20353;-74
2022/10/02 19:26:53;;;;;;;;;;;22.10;99.90;;;;;;5013351;28;19932;-74
2022/10/02 19:29:27;;;;;;;;;;;22.10;99.90;;;;;;5015119;28;20037;-74
2022/10/02 19:31:56;;;;;;;;;;;22.10;99.90;;;;;;5017070;28;20407;-73
2022/10/02 19:34:24;;;;;;;;;;;22.10;99.90;;;;;;5017282;28;20032;-74
2022/10/02 19:36:53;;;;;;;;;;;22.10;99.90;;;;;;5016847;28;19983;-74
2022/10/02 19:39:22;;;;;;;;;;;22.00;99.90;;;;;;5016899;28;20407;-74
2022/10/02 19:41:52;;;;;;;;;;;22.00;99.90;;;;;;5017148;28;19932;-73
2022/10/02 19:44:20;;;;;;;;;;;22.00;99.90;;;;;;5017123;28;20015;-74
2022/10/02 19:46:48;;;;;;;;;;;22.00;99.90;;;;;;5016711;28;20016;-74
2022/10/02 19:49:19;;;;;;;;;;;22.00;99.90;;;;;;5055459;23;19984;-77
2022/10/02 19:51:46;;;;;;;;;;;22.00;99.90;;;;;;5036817;28;19925;-77
2022/10/02 19:54:17;;;;;;;;;;;22.00;99.90;;;;;;5036769;28;20352;-77
2022/10/02 19:56:44;;;;;;;;;;;22.00;99.90;;;;;;5036413;28;20463;-77
2022/10/02 19:59:15;;;;;;;;;;;22.00;99.90;;;;;;5036590;28;19988;-77
2022/10/02 20:01:42;;;;;;;;;;;22.00;99.90;;;;;;5036234;28;20027;-78
2022/10/02 20:04:14;;;;;;;;;;;22.00;99.90;;;;;;5036642;28;19925;-79
2022/10/02 20:06:46;;;;;;;;;;;22.00;99.90;;;;;;5036762;28;19925;-78
2022/10/02 20:09:15;;;;;;;;;;;22.00;99.90;;;;;;5036534;28;20024;-78
2022/10/02 20:11:43;;;;;;;;;;;22.00;99.90;;;;;;5036093;28;20440;-77
2022/10/02 20:14:13;;;;;;;;;;;22.00;99.90;;;;;;5036076;28;20451;-77
2022/10/02 20:19:25;;;;;;;;;;;22.00;99.90;;;;;;5036974;28;19928;-77
2022/10/02 20:21:54;;;;;;;;;;;22.00;99.90;;;;;;5036917;28;19925;-77
2022/10/02 20:24:24;;;;;;;;;;;22.00;99.90;;;;;;5036146;28;19961;-77
2022/10/02 20:26:53;;;;;;;;;;;22.00;99.90;;;;;;5036070;28;19925;-77
2022/10/02 20:29:22;;;;;;;;;;;22.00;99.90;;;;;;5036566;28;19933;-76
2022/10/02 20:31:52;;;;;;;;;;;22.00;99.90;;;;;;5035651;28;20007;-76
2022/10/02 20:34:23;;;;;;;;;;;22.00;99.90;;;;;;5035931;28;20028;-76
2022/10/02 20:36:53;;;;;;;;;;;22.00;99.90;;;;;;5036144;28;19925;-76
2022/10/02 20:39:25;;;;;;;;;;;22.00;99.90;;;;;;5036005;28;20337;-76
2022/10/02 20:41:54;;;;;;;;;;;22.00;99.90;;;;;;5035761;28;20030;-76
2022/10/02 20:44:21;;;;;;;;;;;22.00;99.90;;;;;;5035682;28;19925;-76
2022/10/02 20:47:05;;;;;;;;;;;22.00;99.90;;;;;;5035757;28;20347;-76
2022/10/02 20:49:51;;;;;;;;;;;22.00;99.90;;;;;;5035252;28;19925;-75
2022/10/02 20:52:33;;;;;;;;;;;22.00;99.90;;;;;;5035595;28;20023;-77
2022/10/02 20:55:06;;;;;;;;;;;22.00;99.90;;;;;;5033924;28;19956;-76
2022/10/02 20:57:44;;;;;;;;;;;22.00;99.90;;;;;;5035468;28;20012;-75
2022/10/02 21:00:15;;;;;;;;;;;22.00;99.90;;;;;;5035447;28;19979;-76
2022/10/02 21:02:58;;;;;;;;;;;22.00;99.90;;;;;;5035448;28;19928;-75
2022/10/02 21:05:43;;;;;;;;;;;22.00;99.90;;;;;;5035492;28;19925;-77
2022/10/02 21:08:17;;;;;;;;;;;22.00;99.90;;;;;;5027878;28;20377;-76
2022/10/02 21:10:57;;;;;;;;;;;22.00;99.90;;;;;;5035016;28;19968;-76
2022/10/02 21:13:43;;;;;;;;;;;22.00;99.90;;;;;;5035221;28;19968;-76
2022/10/02 21:16:28;;;;;;;;;;;22.00;99.90;;;;;;5035191;28;19969;-76
2022/10/02 21:19:11;;;;;;;;;;;22.00;99.90;;;;;;5014212;28;19925;-76
2022/10/02 21:21:50;;;;;;;;;;;22.00;99.90;;;;;;5034670;28;20303;-76
2022/10/02 21:24:25;;;;;;;;;;;22.00;99.90;;;;;;5034676;28;19925;-76
2022/10/02 21:27:06;;;;;;;;;;;22.00;99.90;;;;;;5035014;28;20349;-76
2022/10/02 21:29:43;;;;;;;;;;;22.00;99.90;;;;;;5032993;28;20007;-76
2022/10/02 21:32:21;;;;;;;;;;;22.00;99.90;;;;;;5034894;28;19934;-76
2022/10/02 21:34:58;;;;;;;;;;;22.00;99.90;;;;;;5034852;28;19951;-76
2022/10/02 21:37:27;;;;;;;;;;;22.00;99.90;;;;;;5034809;28;19925;-76
2022/10/02 21:40:13;;;;;;;;;;;22.00;99.90;;;;;;5034754;28;19925;-76
2022/10/02 21:43:00;;;;;;;;;;;22.00;99.90;;;;;;5034672;28;19968;-76
2022/10/02 21:45:45;;;;;;;;;;;21.90;99.90;;;;;;5031216;28;19925;-76
2022/10/02 21:48:35;;;;;;;;;;;21.90;99.90;;;;;;5034377;28;19929;-76
2022/10/02 21:51:21;;;;;;;;;;;21.90;99.90;;;;;;5034411;28;19925;-76
2022/10/02 21:54:06;;;;;;;;;;;21.90;99.90;;;;;;5034519;28;19952;-76
2022/10/02 21:57:03;;;;;;;;;;;21.90;99.90;;;;;;5034478;28;19926;-77
2022/10/02 21:59:57;;;;;;;;;;;21.90;99.90;;;;;;4992601;28;19968;-76
2022/10/02 22:02:57;;;;;;;;;;;21.90;99.90;;;;;;4996586;28;19925;-76
2022/10/02 22:05:39;;;;;;;;;;;21.90;99.90;;;;;;4992651;28;20424;-76
2022/10/02 22:08:13;;;;;;;;;;;21.90;99.90;;;;;;4992689;28;20381;-76
2022/10/02 22:10:43;;;;;;;;;;;21.90;99.90;;;;;;5017206;28;20016;-76
2022/10/02 22:13:17;;;;;;;;;;;21.90;99.90;;;;;;5034215;28;19924;-76
2022/10/02 22:15:47;;;;;;;;;;;22.00;99.90;;;;;;5034280;28;20291;-76
2022/10/02 22:18:16;;;;;;;;;;;22.00;99.90;;;;;;5034099;28;20008;-76
2022/10/02 22:20:50;;;;;;;;;;;22.00;99.90;;;;;;5033970;28;19931;-76
2022/10/02 22:23:28;;;;;;;;;;;22.00;99.90;;;;;;5034198;28;19956;-76
2022/10/02 22:26:03;;;;;;;;;;;21.90;99.90;;;;;;5034157;28;19947;-76
2022/10/02 22:28:35;;;;;;;;;;;22.00;99.90;;;;;;5034031;28;20023;-76
2022/10/02 22:31:08;;;;;;;;;;;22.00;99.90;;;;;;5034071;28;19926;-76
2022/10/02 22:33:43;;;;;;;;;;;22.00;99.90;;;;;;5034034;28;19991;-76
2022/10/02 22:36:28;;;;;;;;;;;22.00;99.90;;;;;;5034009;28;19926;-76
2022/10/02 22:39:03;;;;;;;;;;;22.00;99.90;;;;;;5033712;28;19952;-76
2022/10/02 22:41:34;;;;;;;;;;;22.00;99.90;;;;;;5033869;28;19932;-76
2022/10/02 22:44:03;;;;;;;;;;;22.00;99.90;;;;;;5033905;28;19932;-76
2022/10/02 22:46:35;;;;;;;;;;;22.00;99.90;;;;;;5033872;28;19957;-76
2022/10/02 22:49:04;;;;;;;;;;;22.00;99.90;;;;;;5033496;28;19925;-76
2022/10/02 22:51:35;;;;;;;;;;;22.00;99.90;;;;;;5033864;28;19979;-76
2022/10/02 22:54:07;;;;;;;;;;;22.00;99.90;;;;;;5033854;28;19932;-76
2022/10/02 22:56:37;;;;;;;;;;;22.00;99.90;;;;;;5033512;28;20281;-76
2022/10/02 22:59:06;;;;;;;;;;;22.00;99.90;;;;;;5033686;28;19925;-76
2022/10/02 23:01:39;;;;;;;;;;;22.00;99.90;;;;;;5033674;28;19976;-76
2022/10/02 23:04:15;;;;;;;;;;;22.00;99.90;;;;;;5036429;28;20019;-76
2022/10/02 23:06:44;;;;;;;;;;;22.00;99.90;;;;;;5037693;28;19940;-76
2022/10/02 23:09:16;;;;;;;;;;;22.00;99.90;;;;;;5037607;28;20344;-76
2022/10/02 23:11:45;;;;;;;;;;;22.00;99.90;;;;;;5037550;28;20019;-75
2022/10/02 23:14:19;;;;;;;;;;;22.00;99.90;;;;;;5037525;28;20016;-76